createdAt,value
2019-04-21T00:01:57.652Z,11.20
2019-04-21T00:04:38.048Z,12.57
2019-04-21T00:07:14.495Z,11.53
2019-04-21T00:09:50.701Z,12.27
2019-04-21T00:12:13.796Z,12.00
2019-04-21T00:14:31.630Z,11.40
2019-04-21T00:16:57.485Z,11.70
2019-04-21T00:19:28.182Z,12.23
2019-04-21T00:22:04.919Z,13.70
2019-04-21T00:24:33.716Z,12.93
2019-04-21T00:27:05.305Z,13.23
2019-04-21T00:29:45.427Z,15.00
2019-04-21T00:32:03.001Z,14.40
2019-04-21T00:34:17.638Z,13.60
2019-04-21T00:36:55.969Z,13.67
2019-04-21T00:39:43.877Z,14.87
2019-04-21T00:42:08.625Z,14.13
2019-04-21T00:44:25.686Z,13.17
2019-04-21T00:46:56.400Z,14.50
2019-04-21T00:49:31.129Z,15.37
2019-04-21T00:52:38.930Z,14.23
2019-04-21T00:55:12.269Z,15.17
2019-04-21T00:57:33.791Z,16.00
2019-04-21T01:00:00.802Z,14.13
2019-04-21T01:02:27.989Z,14.50
2019-04-21T01:05:02.037Z,15.50
2019-04-21T01:07:28.176Z,15.73
2019-04-21T01:09:48.876Z,15.40
2019-04-21T01:12:26.823Z,14.40
2019-04-21T01:14:55.436Z,17.00
2019-04-21T01:17:22.853Z,15.27
2019-04-21T01:19:47.731Z,15.97
2019-04-21T01:21:58.076Z,16.93
2019-04-21T01:24:34.502Z,16.40
2019-04-21T01:27:10.061Z,15.87
2019-04-21T01:29:45.838Z,17.90
2019-04-21T01:32:24.179Z,15.80
2019-04-21T01:34:49.731Z,16.90
2019-04-21T01:37:10.898Z,16.70
2019-04-21T01:39:51.556Z,17.70
2019-04-21T01:42:15.739Z,16.33
2019-04-21T01:44:44.994Z,16.57
2019-04-21T01:47:08.625Z,16.50
2019-04-21T01:49:29.643Z,17.40
2019-04-21T01:52:17.608Z,16.83
2019-04-21T01:55:00.232Z,16.33
2019-04-21T01:57:33.394Z,17.27
2019-04-21T01:59:54.912Z,16.93
2019-04-21T02:02:29.377Z,16.70
2019-04-21T02:05:05.560Z,17.27
2019-04-21T02:07:27.044Z,18.13
2019-04-21T02:09:59.966Z,17.40
2019-04-21T02:12:26.563Z,17.43
2019-04-21T02:15:09.501Z,17.90
2019-04-21T02:17:25.099Z,17.60
2019-04-21T02:19:50.363Z,18.60
2019-04-21T02:22:27.178Z,16.77
2019-04-21T02:24:58.021Z,17.80
2019-04-21T02:27:26.598Z,17.37
2019-04-21T02:29:54.962Z,18.13
2019-04-21T02:35:03.955Z,17.80
2019-04-21T02:37:36.986Z,17.97
2019-04-21T02:42:27.821Z,17.50
2019-04-21T02:44:51.806Z,17.50
2019-04-21T02:47:37.043Z,16.40
2019-04-21T02:49:59.556Z,17.50
2019-04-21T02:54:53.435Z,17.90
2019-04-21T02:57:19.023Z,16.80
2019-04-21T03:00:00.025Z,16.73
2019-04-21T03:05:28.267Z,17.53
2019-04-21T03:07:55.324Z,17.50
2019-04-21T03:10:26.536Z,16.90
2019-04-21T03:12:45.995Z,16.63
2019-04-21T03:15:21.303Z,17.97
2019-04-21T03:18:08.257Z,17.37
2019-04-21T03:20:25.526Z,18.30
2019-04-21T03:23:07.871Z,16.20
2019-04-21T03:25:25.266Z,17.57
2019-04-21T03:28:00.796Z,17.33
2019-04-21T03:37:39.861Z,15.60
2019-04-21T03:40:18.693Z,18.40
2019-04-21T03:42:38.527Z,17.93
2019-04-21T03:45:19.954Z,17.20
2019-04-21T03:47:36.052Z,16.40
2019-04-21T03:52:42.548Z,16.73
2019-04-21T04:03:35.136Z,17.40
2019-04-21T04:06:03.741Z,17.90
2019-04-21T04:08:43.606Z,16.70
2019-04-21T04:11:05.083Z,17.40
2019-04-21T04:13:29.572Z,17.03
2019-04-21T04:15:56.443Z,18.80
2019-04-21T04:18:39.221Z,17.30
2019-04-21T04:20:53.427Z,18.77
2019-04-21T04:23:20.139Z,17.60
2019-04-21T04:25:51.569Z,16.37
2019-04-21T04:28:19.108Z,17.60
2019-04-21T04:30:52.786Z,17.00
2019-04-21T04:33:21.264Z,16.83
2019-04-21T04:38:26.424Z,17.40
2019-04-21T04:40:55.955Z,17.33
2019-04-21T04:45:56.684Z,18.40
2019-04-21T04:48:20.220Z,17.07
2019-04-21T04:53:20.337Z,17.30
2019-04-21T04:55:48.164Z,17.40
2019-04-21T04:58:44.322Z,17.50
2019-04-21T05:00:43.405Z,17.10
2019-04-21T05:03:19.181Z,17.00
2019-04-21T05:09:03.355Z,16.97
2019-04-21T05:11:30.904Z,16.10
2019-04-21T05:13:54.959Z,16.53
2019-04-21T05:16:34.631Z,16.73
2019-04-21T05:19:00.726Z,16.57
2019-04-21T05:21:24.835Z,16.57
2019-04-21T05:23:41.336Z,15.33
2019-04-21T05:26:01.587Z,16.37
2019-04-21T05:28:29.891Z,16.63
2019-04-21T05:31:19.791Z,16.90
2019-04-21T05:33:49.475Z,16.20
2019-04-21T05:36:27.864Z,17.60
2019-04-21T05:39:06.873Z,17.53
2019-04-21T05:41:26.617Z,16.50
2019-04-21T05:44:03.781Z,16.33
2019-04-21T05:46:32.254Z,17.70
2019-04-21T05:49:05.846Z,16.80
2019-04-21T05:51:30.613Z,17.73
2019-04-21T05:54:14.975Z,17.90
2019-04-21T05:56:36.530Z,19.30
2019-04-21T05:59:02.074Z,17.20
2019-04-21T06:01:46.751Z,15.23
2019-04-21T06:04:11.399Z,16.23
2019-04-21T06:06:37.546Z,17.07
2019-04-21T06:09:00.908Z,16.37
2019-04-21T06:11:30.929Z,15.07
2019-04-21T06:14:14.019Z,14.40
2019-04-21T06:16:30.368Z,14.80
2019-04-21T06:18:58.631Z,16.03
2019-04-21T06:21:27.554Z,14.57
2019-04-21T06:24:10.167Z,17.07
2019-04-21T06:28:51.810Z,21.90
2019-04-21T06:31:40.819Z,23.10
2019-04-21T06:33:48.881Z,21.83
2019-04-21T06:36:41.417Z,19.60
2019-04-21T06:44:14.239Z,15.37
2019-04-21T06:46:30.930Z,13.77
2019-04-21T06:51:27.923Z,12.80
2019-04-21T06:53:59.733Z,13.10
2019-04-21T06:56:23.816Z,15.00
2019-04-21T06:58:51.430Z,14.83
2019-04-21T07:01:26.533Z,13.17
2019-04-21T07:04:01.676Z,14.17
2019-04-21T07:06:13.165Z,14.43
2019-04-21T07:08:54.379Z,13.30
2019-04-21T07:11:08.710Z,13.37
2019-04-21T07:13:41.511Z,12.63
2019-04-21T07:16:12.020Z,11.50
2019-04-21T07:18:41.157Z,11.80
2019-04-21T07:21:08.221Z,13.37
2019-04-21T07:23:39.835Z,13.67
2019-04-21T07:26:05.686Z,13.57
2019-04-21T07:28:40.272Z,14.60
2019-04-21T07:31:15.503Z,14.33
2019-04-21T07:36:07.942Z,14.30
2019-04-21T07:38:27.231Z,13.37
2019-04-21T07:40:54.902Z,13.87
2019-04-21T07:43:24.648Z,13.80
2019-04-21T07:45:56.913Z,14.53
2019-04-21T07:48:31.308Z,13.63
2019-04-21T07:53:59.648Z,12.57
2019-04-21T07:56:06.491Z,13.80
2019-04-21T07:58:53.446Z,11.97
2019-04-21T08:01:18.263Z,13.70
2019-04-21T08:03:46.133Z,12.27
2019-04-21T08:06:18.872Z,13.60
2019-04-21T08:08:45.100Z,12.37
2019-04-21T08:11:10.961Z,12.37
2019-04-21T08:13:48.818Z,12.50
2019-04-21T08:16:12.787Z,12.47
2019-04-21T08:18:39.368Z,12.90
2019-04-21T08:21:08.600Z,12.23
2019-04-21T08:23:37.091Z,11.57
2019-04-21T08:26:12.144Z,12.27
2019-04-21T08:31:04.530Z,12.47
2019-04-21T08:33:38.707Z,12.53
2019-04-21T08:38:27.691Z,11.80
2019-04-21T08:41:01.952Z,12.77
2019-04-21T08:43:39.988Z,12.20
2019-04-21T08:46:13.842Z,12.77
2019-04-21T08:48:22.823Z,11.73
2019-04-21T08:51:12.928Z,11.33
2019-04-21T08:53:27.375Z,11.10
2019-04-21T08:56:16.453Z,11.40
2019-04-21T08:59:12.628Z,10.50
2019-04-21T09:02:01.379Z,10.43
2019-04-21T09:04:29.074Z,10.87
2019-04-21T09:07:05.160Z,10.00
2019-04-21T09:09:29.131Z,8.67
2019-04-21T09:12:01.615Z,9.60
2019-04-21T09:14:25.703Z,9.40
2019-04-21T09:16:53.655Z,10.40
2019-04-21T09:19:35.278Z,10.27
2019-04-21T09:21:57.473Z,9.97
2019-04-21T09:24:24.622Z,9.60
2019-04-21T09:26:49.253Z,10.20
2019-04-21T09:29:10.905Z,8.80
2019-04-21T09:31:36.488Z,9.90
2019-04-21T09:34:03.175Z,9.23
2019-04-21T09:36:36.929Z,10.00
2019-04-21T09:39:05.548Z,10.50
2019-04-21T09:41:28.311Z,10.37
2019-04-21T09:43:57.529Z,11.60
2019-04-21T09:46:25.464Z,11.20
2019-04-21T09:48:59.244Z,10.63
2019-04-21T09:51:21.656Z,11.23
2019-04-21T09:53:58.765Z,10.30
2019-04-21T09:56:30.492Z,11.20
2019-04-21T09:58:51.704Z,11.07
2019-04-21T10:01:22.615Z,11.47
2019-04-21T10:03:48.703Z,9.63
2019-04-21T10:06:16.107Z,10.20
2019-04-21T10:08:43.046Z,11.50
2019-04-21T10:11:10.022Z,10.27
2019-04-21T10:13:37.409Z,10.63
2019-04-21T10:16:23.884Z,11.23
2019-04-21T10:18:52.320Z,10.80
2019-04-21T10:21:19.826Z,10.30
2019-04-21T10:23:47.960Z,10.03
2019-04-21T10:26:15.012Z,11.20
2019-04-21T10:28:43.315Z,10.73
2019-04-21T10:31:11.025Z,10.70
2019-04-21T10:33:38.131Z,9.90
2019-04-21T10:36:05.163Z,10.70
2019-04-21T10:38:38.940Z,10.40
2019-04-21T10:41:01.539Z,9.67
2019-04-21T10:43:29.254Z,10.40
2019-04-21T10:45:57.083Z,9.97
2019-04-21T10:48:25.201Z,9.97
2019-04-21T10:50:52.784Z,9.47
2019-04-21T10:53:23.055Z,9.80
2019-04-21T10:56:06.110Z,9.87
2019-04-21T10:58:22.600Z,9.70
2019-04-21T11:00:52.800Z,9.73
2019-04-21T11:03:46.660Z,9.43
2019-04-21T11:06:16.894Z,9.30
2019-04-21T11:08:47.598Z,9.70
2019-04-21T11:11:13.860Z,9.70
2019-04-21T11:13:42.180Z,10.10
2019-04-21T11:16:09.157Z,10.13
2019-04-21T11:18:36.164Z,10.17
2019-04-21T11:21:04.834Z,10.00
2019-04-21T11:23:33.105Z,10.67
2019-04-21T11:26:00.272Z,10.30
2019-04-21T11:28:27.361Z,10.00
2019-04-21T11:30:54.905Z,10.33
2019-04-21T11:33:22.832Z,10.60
2019-04-21T11:35:51.223Z,10.63
2019-04-21T11:38:26.628Z,10.90
2019-04-21T11:40:51.778Z,10.87
2019-04-21T11:43:19.760Z,11.23
2019-04-21T11:45:46.798Z,10.53
2019-04-21T11:48:24.212Z,9.80
2019-04-21T11:50:51.234Z,9.13
2019-04-21T11:53:18.931Z,9.07
2019-04-21T11:55:48.537Z,9.07
2019-04-21T11:58:15.981Z,9.83
2019-04-21T12:00:45.385Z,8.90
2019-04-21T12:03:15.232Z,8.80
2019-04-21T12:05:41.501Z,8.53
2019-04-21T12:08:21.343Z,8.37
2019-04-21T12:10:37.649Z,8.27
2019-04-21T12:13:07.378Z,8.60
2019-04-21T12:15:34.660Z,9.07
2019-04-21T12:18:02.170Z,7.27
2019-04-21T12:20:30.323Z,9.30
2019-04-21T12:22:57.534Z,7.40
2019-04-21T12:25:27.231Z,8.97
2019-04-21T12:27:54.399Z,8.77
2019-04-21T12:30:21.938Z,7.97
2019-04-21T12:32:53.897Z,8.10
2019-04-21T12:35:21.857Z,8.10
2019-04-21T12:37:49.331Z,7.70
2019-04-21T12:40:16.970Z,8.93
2019-04-21T12:42:45.456Z,7.57
2019-04-21T12:45:13.098Z,7.87
2019-04-21T12:47:41.806Z,7.83
2019-04-21T12:50:11.102Z,7.50
2019-04-21T12:52:38.154Z,7.70
2019-04-21T12:55:05.850Z,6.60
2019-04-21T12:57:33.323Z,7.40
2019-04-21T13:00:02.875Z,7.77
2019-04-21T13:02:30.028Z,7.10
2019-04-21T13:04:57.789Z,7.80
2019-04-21T13:07:25.760Z,7.53
2019-04-21T13:09:54.510Z,7.87
2019-04-21T13:12:22.875Z,7.43
2019-04-21T13:14:50.124Z,8.30
2019-04-21T13:17:17.331Z,8.23
2019-04-21T13:19:45.315Z,9.47
2019-04-21T13:22:12.421Z,7.87
2019-04-21T13:24:39.928Z,8.40
2019-04-21T13:27:08.875Z,6.93
2019-04-21T13:29:36.452Z,7.10
2019-04-21T13:32:05.169Z,7.40
2019-04-21T13:34:33.764Z,7.60
2019-04-21T13:37:01.560Z,6.93
2019-04-21T13:40:06.553Z,8.10
2019-04-21T13:42:13.432Z,7.20
2019-04-21T13:44:34.949Z,7.50
2019-04-21T13:47:02.755Z,8.13
2019-04-21T13:49:29.873Z,7.10
2019-04-21T13:51:57.013Z,6.93
2019-04-21T13:54:25.458Z,7.83
2019-04-21T13:56:52.542Z,7.90
2019-04-21T13:59:20.098Z,6.47
2019-04-21T14:01:47.827Z,7.90
2019-04-21T14:04:15.844Z,7.30
2019-04-21T14:06:44.562Z,6.63
2019-04-21T14:09:11.728Z,7.87
2019-04-21T14:11:38.715Z,8.10
2019-04-21T14:14:06.122Z,6.97
2019-04-21T14:16:34.033Z,7.30
2019-04-21T14:19:01.776Z,7.30
2019-04-21T14:21:29.392Z,8.13
2019-04-21T14:23:59.100Z,6.60
2019-04-21T14:26:26.713Z,7.13
2019-04-21T14:28:54.645Z,6.43
2019-04-21T14:31:22.231Z,7.20
2019-04-21T14:33:50.045Z,6.40
2019-04-21T14:36:17.179Z,6.90
2019-04-21T14:38:44.727Z,6.47
2019-04-21T14:41:12.444Z,6.10
2019-04-21T14:43:39.602Z,6.70
2019-04-21T14:46:13.203Z,6.47
2019-04-21T14:49:05.644Z,6.47
2019-04-21T14:51:49.208Z,6.23
2019-04-21T14:54:42.715Z,5.57
2019-04-21T14:57:11.356Z,6.17
2019-04-21T14:59:39.197Z,7.03
2019-04-21T15:02:07.613Z,4.80
2019-04-21T15:04:35.630Z,5.03
2019-04-21T15:07:03.404Z,6.90
2019-04-21T15:09:31.533Z,6.00
2019-04-21T15:12:00.091Z,6.67
2019-04-21T15:14:27.319Z,6.53
2019-04-21T15:16:54.556Z,6.27
2019-04-21T15:19:22.446Z,6.00
2019-04-21T15:21:50.219Z,5.97
2019-04-21T15:24:18.347Z,6.40
2019-04-21T15:26:46.449Z,6.03
2019-04-21T15:29:15.000Z,7.30
2019-04-21T15:31:44.654Z,6.10
2019-04-21T15:34:11.299Z,6.50
2019-04-21T15:36:39.986Z,5.93
2019-04-21T15:39:07.963Z,6.20
2019-04-21T15:41:34.974Z,6.10
2019-04-21T15:44:04.081Z,5.77
2019-04-21T15:46:33.896Z,6.03
2019-04-21T15:49:00.591Z,6.13
2019-04-21T15:51:28.081Z,6.30
2019-04-21T15:53:57.578Z,6.50
2019-04-21T15:56:36.942Z,6.70
2019-04-21T15:59:32.646Z,6.60
2019-04-21T16:02:19.376Z,6.47
2019-04-21T16:04:46.609Z,8.90
2019-04-21T16:07:14.074Z,6.17
2019-04-21T16:09:41.793Z,5.87
2019-04-21T16:12:09.681Z,5.97
2019-04-21T16:14:36.882Z,6.00
2019-04-21T16:17:05.370Z,6.37
2019-04-21T16:19:33.343Z,6.37
2019-04-21T16:22:03.161Z,6.40
2019-04-21T16:24:30.902Z,6.10
2019-04-21T16:27:01.730Z,6.00
2019-04-21T16:29:27.251Z,7.07
2019-04-21T16:31:55.234Z,6.37
2019-04-21T16:34:35.390Z,6.20
2019-04-21T16:36:51.807Z,5.97
2019-04-21T16:39:19.688Z,7.00
2019-04-21T16:41:46.828Z,6.20
2019-04-21T16:44:13.802Z,6.87
2019-04-21T16:46:41.287Z,6.60
2019-04-21T16:49:09.651Z,6.37
2019-04-21T16:51:37.986Z,6.53
2019-04-21T16:54:24.317Z,7.33
2019-04-21T16:57:03.726Z,6.33
2019-04-21T16:59:35.065Z,6.70
2019-04-21T17:02:02.903Z,6.50
2019-04-21T17:04:30.697Z,6.20
2019-04-21T17:06:58.944Z,6.10
2019-04-21T17:09:26.526Z,6.20
2019-04-21T17:11:58.063Z,6.83
2019-04-21T17:14:37.177Z,6.17
2019-04-21T17:17:15.836Z,5.23
2019-04-21T17:19:27.787Z,5.60
2019-04-21T17:21:49.893Z,5.60
2019-04-21T17:24:16.989Z,6.00
2019-04-21T17:26:44.723Z,6.40
2019-04-21T17:29:14.549Z,5.73
2019-04-21T17:31:41.740Z,5.90
2019-04-21T17:34:16.241Z,6.30
2019-04-21T17:36:41.569Z,6.30
2019-04-21T17:39:09.025Z,7.40
2019-04-21T17:41:42.463Z,6.30
2019-04-21T17:44:06.553Z,7.30
2019-04-21T17:46:44.100Z,6.90
2019-04-21T17:49:03.222Z,6.93
2019-04-21T17:51:49.388Z,7.57
2019-04-21T17:54:27.616Z,6.80
2019-04-21T17:57:12.049Z,7.93
2019-04-21T17:59:52.307Z,6.40
2019-04-21T18:02:03.700Z,7.03
2019-04-21T18:04:34.842Z,5.70
2019-04-21T18:07:26.190Z,6.60
2019-04-21T18:09:59.098Z,6.80
2019-04-21T18:12:16.623Z,6.43
2019-04-21T18:14:32.926Z,6.30
2019-04-21T18:17:00.362Z,6.93
2019-04-21T18:19:30.991Z,6.50
2019-04-21T18:22:23.976Z,7.10
2019-04-21T18:25:03.017Z,7.30
2019-04-21T18:27:21.971Z,6.97
2019-04-21T18:29:52.732Z,7.50
2019-04-21T18:32:26.394Z,7.70
2019-04-21T18:35:14.203Z,7.43
2019-04-21T18:38:15.395Z,8.53
2019-04-21T18:40:38.505Z,7.60
2019-04-21T18:46:13.500Z,7.30
2019-04-21T18:48:40.951Z,7.90
2019-04-21T18:51:27.661Z,8.00
2019-04-21T18:54:22.670Z,8.00
2019-04-21T18:56:31.530Z,8.30
2019-04-21T18:58:58.737Z,8.30
2019-04-21T19:01:28.270Z,7.70
2019-04-21T19:03:56.149Z,8.70
2019-04-21T19:06:43.901Z,8.07
2019-04-21T19:09:11.594Z,7.73
2019-04-21T19:11:32.922Z,8.70
2019-04-21T19:14:29.041Z,7.90
2019-04-21T19:16:47.577Z,8.47
2019-04-21T19:19:34.171Z,9.93
2019-04-21T19:21:34.080Z,9.37
2019-04-21T19:24:20.263Z,9.60
2019-04-21T19:26:51.071Z,12.10
2019-04-21T19:29:16.319Z,12.93
2019-04-21T19:31:39.759Z,17.00
2019-04-21T19:33:55.147Z,18.17
2019-04-21T19:36:17.214Z,19.57
2019-04-21T19:38:55.920Z,20.50
2019-04-21T19:41:28.175Z,21.10
2019-04-21T19:44:02.763Z,19.57
2019-04-21T19:46:28.120Z,18.23
2019-04-21T19:49:07.245Z,18.00
2019-04-21T19:51:23.201Z,15.37
2019-04-21T19:53:52.791Z,16.20
2019-04-21T19:58:47.490Z,14.93
2019-04-21T20:01:17.265Z,14.67
2019-04-21T20:03:48.663Z,15.40
2019-04-21T20:06:28.607Z,15.63
2019-04-21T20:08:59.189Z,14.60
2019-04-21T20:11:30.585Z,15.90
2019-04-21T20:14:27.481Z,15.20
2019-04-21T20:16:33.919Z,15.70
2019-04-21T20:18:44.663Z,14.90
2019-04-21T20:21:08.024Z,15.37
2019-04-21T20:23:38.990Z,15.30
2019-04-21T20:26:08.112Z,15.30
2019-04-21T20:28:45.524Z,17.87
2019-04-21T20:31:18.893Z,21.00
2019-04-21T20:33:52.691Z,20.37
2019-04-21T20:36:21.158Z,21.87
2019-04-21T20:38:40.388Z,20.73
2019-04-21T20:41:10.953Z,19.83
2019-04-21T20:43:45.857Z,18.73
2019-04-21T20:46:12.256Z,19.37
2019-04-21T20:48:35.618Z,18.17
2019-04-21T20:51:14.484Z,18.83
2019-04-21T20:53:37.657Z,18.90
2019-04-21T20:56:02.421Z,17.63
2019-04-21T20:58:37.266Z,19.60
2019-04-21T21:01:32.977Z,18.90
2019-04-21T21:03:35.083Z,18.80
2019-04-21T21:05:58.363Z,19.10
2019-04-21T21:08:35.849Z,20.07
2019-04-21T21:10:57.505Z,20.97
2019-04-21T21:13:39.481Z,20.50
2019-04-21T21:16:11.898Z,21.30
2019-04-21T21:18:52.287Z,21.63
2019-04-21T21:20:59.097Z,21.53
2019-04-21T21:23:26.027Z,22.40
2019-04-21T21:25:55.464Z,21.57
2019-04-21T21:28:22.606Z,20.87
2019-04-21T21:30:53.061Z,21.00
2019-04-21T21:33:25.694Z,20.30
2019-04-21T21:35:49.459Z,18.90
2019-04-21T21:38:21.943Z,19.53
2019-04-21T21:40:45.521Z,18.57
2019-04-21T21:43:08.139Z,18.10
2019-04-21T21:45:39.478Z,17.30
2019-04-21T21:48:18.761Z,18.27
2019-04-21T21:50:42.367Z,16.97
2019-04-21T21:53:04.210Z,17.27
2019-04-21T21:55:27.680Z,18.43
2019-04-21T21:57:58.798Z,17.43
2019-04-21T22:00:26.248Z,18.37
2019-04-21T22:02:56.871Z,18.13
2019-04-21T22:05:26.012Z,16.57
2019-04-21T22:07:52.235Z,17.53
2019-04-21T22:10:20.142Z,17.30
2019-04-21T22:12:55.428Z,17.90
2019-04-21T22:15:22.235Z,18.17
2019-04-21T22:18:07.551Z,18.23
2019-04-21T22:20:33.335Z,16.30
2019-04-21T22:22:54.250Z,16.43
2019-04-21T22:25:20.737Z,15.13
2019-04-21T22:27:43.457Z,16.00
2019-04-21T22:30:14.669Z,15.70
2019-04-21T22:32:50.246Z,14.63
2019-04-21T22:35:22.331Z,15.57
2019-04-21T22:37:51.126Z,15.70
2019-04-21T22:40:21.918Z,16.97
2019-04-21T22:42:47.436Z,15.20
2019-04-21T22:45:09.186Z,16.17
2019-04-21T22:47:39.533Z,15.93
2019-04-21T22:50:08.539Z,14.23
2019-04-21T22:52:35.680Z,16.30
2019-04-21T22:55:08.311Z,15.40
2019-04-21T22:57:36.625Z,14.80
2019-04-21T23:00:03.906Z,15.10
2019-04-21T23:02:33.312Z,15.00
2019-04-21T23:05:00.546Z,15.03
2019-04-21T23:07:28.208Z,15.67
2019-04-21T23:09:55.531Z,14.00
2019-04-21T23:12:28.251Z,15.57
2019-04-21T23:14:58.524Z,14.03
2019-04-21T23:17:37.836Z,14.40
2019-04-21T23:20:13.269Z,14.23
2019-04-21T23:22:49.369Z,13.13
2019-04-21T23:25:09.419Z,13.30
2019-04-21T23:27:33.376Z,14.17
2019-04-21T23:30:06.397Z,13.73
2019-04-21T23:32:29.493Z,14.10
2019-04-21T23:34:44.172Z,11.83
2019-04-21T23:37:16.634Z,12.70
2019-04-21T23:39:41.545Z,13.33
2019-04-21T23:42:09.173Z,14.40
2019-04-21T23:44:41.519Z,12.53
2019-04-21T23:47:08.595Z,12.10
2019-04-21T23:49:46.206Z,12.43
2019-04-21T23:52:08.156Z,13.10
2019-04-21T23:54:33.405Z,11.53
2019-04-21T23:57:02.891Z,11.43
2019-04-21T23:59:32.842Z,11.60
